Airfield :
LOGIN :

Register | Disclaimer

   EN    FR    IT 

 










Legend :    VFR   Marginal VFR   IFR   Intensive IFR   Very Intensive IFR
Visi :
Ceiling :
>= 8 km
>= 3000ft
5 to 8 km
1000 to 3000 ft
1500m to 5 km
500 to 1000 ft
800 to 1500m
200 to 500 ft
< 800m
< 200 ft
Symbols :   Thunderstorms  Fog  Heavy snow  Heavy precipitations  Wind > 20 kt
SIGMETs :     Misc.  Thunderstorms  Icing  Turbulence  Mountain Waves  Volcanic Ashes






- Airport Elevation : 219 ft
- IATA code : DNR


LFRD - Dinard

CURRENT METAR :
  • 180430Z AUTO 09005KT 5000 BR OVC018 04/04 Q1036 TEMPO 0300 FG VV///

EXPIRED METARs :
  • 180400Z AUTO 09004KT 5000 BR OVC019 04/04 Q1037 TEMPO 0300 FG VV///
  • 180330Z AUTO 09003KT 4200 BR OVC019 04/04 Q1037 TEMPO 0300 FG VV///
  • 180300Z AUTO VRB02KT 4300 BR OVC016 04/04 Q1037 TEMPO 0300 FG VV///
  • 180230Z AUTO VRB02KT 4200 BR BKN002 OVC016 04/04 Q1037 TEMPO 0300 FG VV///
  • 180200Z AUTO 08005KT 3100 BR FEW002 OVC015 04/04 Q1037 TEMPO 0300 FG VV///

TAF TAF LFRD
Valid from the 18 at 00:00 until the 19 at 00:00 UTC


172300Z 1800/1824 VRB05KT 0300 FG VV///
BECMG 1801/1803 2000 BR OVC003
PROB40
TEMPO 1803/1809 0300 FG VV///
BECMG 1809/1811 5000 BR OVC007
BECMG 1811/1813 9999 NSW
TEMPO 1813/1818 BKN013
BECMG 1818/1821 BKN015
ATIS : +33 2 99 16 81 50



MET'MAP, your aeronautical weather chart ! - Copyright ORBIFLY December 2007 - Disclaimer

ORBIFLY MET'MAP TEAM :

Programming & Development : Alexandra Zaïnal
Concept & original design : Baudouin d'Aumeries
Assistance for programming : Marc-Olivier Méhu
Technical & hardware support : Manuel Goepfert

Contact : metmap@orbifly.com




SOURCES & CREDITS :

   NOAA